sensor_id;sensor_type;location;lat;lon;timestamp;temperature;humidity
44579;DHT22;37422;51.402;0.016;2023-02-01T00:02:30;5.30;99.90
44579;DHT22;37422;51.402;0.016;2023-02-01T00:05:03;5.30;99.90
44579;DHT22;37422;51.402;0.016;2023-02-01T00:07:34;5.20;99.90
44579;DHT22;37422;51.402;0.016;2023-02-01T00:10:07;5.20;99.90
44579;DHT22;37422;51.402;0.016;2023-02-01T00:12:39;5.20;99.90
44579;DHT22;37422;51.402;0.016;2023-02-01T00:15:14;5.20;99.90
44579;DHT22;37422;51.402;0.016;2023-02-01T00:17:42;5.10;99.90
44579;DHT22;37422;51.402;0.016;2023-02-01T00:20:21;5.10;99.90
44579;DHT22;37422;51.402;0.016;2023-02-01T00:22:53;5.10;99.90
44579;DHT22;37422;51.402;0.016;2023-02-01T00:25:24;5.10;99.90
44579;DHT22;37422;51.402;0.016;2023-02-01T00:28:04;5.00;99.90
44579;DHT22;37422;51.402;0.016;2023-02-01T00:30:56;5.00;99.90
44579;DHT22;37422;51.402;0.016;2023-02-01T00:33:25;5.00;99.90
44579;DHT22;37422;51.402;0.016;2023-02-01T00:36:05;5.10;99.90
44579;DHT22;37422;51.402;0.016;2023-02-01T00:38:45;5.00;99.90
44579;DHT22;37422;51.402;0.016;2023-02-01T00:41:42;5.00;99.90
44579;DHT22;37422;51.402;0.016;2023-02-01T00:44:25;4.90;99.90
44579;DHT22;37422;51.402;0.016;2023-02-01T00:47:00;4.90;99.90
44579;DHT22;37422;51.402;0.016;2023-02-01T00:49:31;4.90;99.90
44579;DHT22;37422;51.402;0.016;2023-02-01T00:52:04;4.90;99.90
44579;DHT22;37422;51.402;0.016;2023-02-01T00:54:39;4.90;99.90
44579;DHT22;37422;51.402;0.016;2023-02-01T00:57:17;4.90;99.90
44579;DHT22;37422;51.402;0.016;2023-02-01T00:59:48;4.90;99.90
44579;DHT22;37422;51.402;0.016;2023-02-01T01:02:42;4.90;99.90
44579;DHT22;37422;51.402;0.016;2023-02-01T01:05:22;4.90;99.90
44579;DHT22;37422;51.402;0.016;2023-02-01T01:07:55;4.90;99.90
44579;DHT22;37422;51.402;0.016;2023-02-01T01:10:48;4.90;99.90
44579;DHT22;37422;51.402;0.016;2023-02-01T01:13:17;4.90;99.90
44579;DHT22;37422;51.402;0.016;2023-02-01T01:15:50;4.90;99.90
44579;DHT22;37422;51.402;0.016;2023-02-01T01:18:28;4.90;99.90
44579;DHT22;37422;51.402;0.016;2023-02-01T01:21:08;4.90;99.90
44579;DHT22;37422;51.402;0.016;2023-02-01T01:24:00;4.90;99.90
44579;DHT22;37422;51.402;0.016;2023-02-01T01:26:29;4.80;99.90
44579;DHT22;37422;51.402;0.016;2023-02-01T01:29:16;4.80;99.90
44579;DHT22;37422;51.402;0.016;2023-02-01T01:31:49;4.80;99.90
44579;DHT22;37422;51.402;0.016;2023-02-01T01:34:32;4.80;99.90
44579;DHT22;37422;51.402;0.016;2023-02-01T01:37:03;4.80;99.90
44579;DHT22;37422;51.402;0.016;2023-02-01T01:39:43;4.80;99.90
44579;DHT22;37422;51.402;0.016;2023-02-01T01:42:24;4.80;99.90
44579;DHT22;37422;51.402;0.016;2023-02-01T01:45:09;4.80;99.90
44579;DHT22;37422;51.402;0.016;2023-02-01T01:47:56;4.80;99.90
44579;DHT22;37422;51.402;0.016;2023-02-01T01:50:51;4.80;99.90
44579;DHT22;37422;51.402;0.016;2023-02-01T01:53:38;4.80;99.90
44579;DHT22;37422;51.402;0.016;2023-02-01T01:56:10;4.80;99.90
44579;DHT22;37422;51.402;0.016;2023-02-01T01:58:56;4.90;99.90
44579;DHT22;37422;51.402;0.016;2023-02-01T02:01:32;4.90;99.90
44579;DHT22;37422;51.402;0.016;2023-02-01T02:04:02;4.90;99.90
44579;DHT22;37422;51.402;0.016;2023-02-01T02:06:45;4.90;99.90
44579;DHT22;37422;51.402;0.016;2023-02-01T02:09:19;5.00;99.90
44579;DHT22;37422;51.402;0.016;2023-02-01T02:11:56;5.00;99.90
44579;DHT22;37422;51.402;0.016;2023-02-01T02:14:30;5.00;99.90
44579;DHT22;37422;51.402;0.016;2023-02-01T02:23:53;5.00;99.90
44579;DHT22;37422;51.402;0.016;2023-02-01T02:38:29;5.00;99.90
44579;DHT22;37422;51.402;0.016;2023-02-01T02:50:34;5.10;99.90
44579;DHT22;37422;51.402;0.016;2023-02-01T02:56:38;5.10;99.90
44579;DHT22;37422;51.402;0.016;2023-02-01T02:59:28;5.10;99.90
44579;DHT22;37422;51.402;0.016;2023-02-01T03:02:18;5.10;99.90
44579;DHT22;37422;51.402;0.016;2023-02-01T03:05:08;5.20;99.90
44579;DHT22;37422;51.402;0.016;2023-02-01T03:08:00;5.30;99.90
44579;DHT22;37422;51.402;0.016;2023-02-01T03:13:45;5.50;99.90
44579;DHT22;37422;51.402;0.016;2023-02-01T03:16:30;5.60;99.90
44579;DHT22;37422;51.402;0.016;2023-02-01T03:19:25;5.70;99.90
44579;DHT22;37422;51.402;0.016;2023-02-01T03:22:01;5.70;99.90
44579;DHT22;37422;51.402;0.016;2023-02-01T03:24:38;5.70;99.90
44579;DHT22;37422;51.402;0.016;2023-02-01T03:27:35;5.70;99.90
44579;DHT22;37422;51.402;0.016;2023-02-01T03:32:40;5.60;99.90
44579;DHT22;37422;51.402;0.016;2023-02-01T03:41:14;5.50;99.90
44579;DHT22;37422;51.402;0.016;2023-02-01T03:47:00;5.50;99.90
44579;DHT22;37422;51.402;0.016;2023-02-01T03:49:36;5.50;99.90
44579;DHT22;37422;51.402;0.016;2023-02-01T03:52:13;5.50;99.90
44579;DHT22;37422;51.402;0.016;2023-02-01T03:54:46;5.50;99.90
44579;DHT22;37422;51.402;0.016;2023-02-01T03:57:30;5.50;99.90
44579;DHT22;37422;51.402;0.016;2023-02-01T04:00:09;5.50;99.90
44579;DHT22;37422;51.402;0.016;2023-02-01T04:02:40;5.50;99.90
44579;DHT22;37422;51.402;0.016;2023-02-01T04:05:11;5.50;99.90
44579;DHT22;37422;51.402;0.016;2023-02-01T04:07:49;5.40;99.90
44579;DHT22;37422;51.402;0.016;2023-02-01T04:10:19;5.40;99.90
44579;DHT22;37422;51.402;0.016;2023-02-01T04:12:53;5.40;99.90
44579;DHT22;37422;51.402;0.016;2023-02-01T04:15:26;5.40;99.90
44579;DHT22;37422;51.402;0.016;2023-02-01T04:17:54;5.40;99.90
44579;DHT22;37422;51.402;0.016;2023-02-01T04:20:23;5.30;99.90
44579;DHT22;37422;51.402;0.016;2023-02-01T04:22:52;5.30;99.90
44579;DHT22;37422;51.402;0.016;2023-02-01T04:25:20;5.30;99.90
44579;DHT22;37422;51.402;0.016;2023-02-01T04:27:49;5.30;99.90
44579;DHT22;37422;51.402;0.016;2023-02-01T04:30:17;5.30;99.90
44579;DHT22;37422;51.402;0.016;2023-02-01T04:32:45;5.30;99.90
44579;DHT22;37422;51.402;0.016;2023-02-01T04:35:12;5.30;99.90
44579;DHT22;37422;51.402;0.016;2023-02-01T04:37:40;5.30;99.90
44579;DHT22;37422;51.402;0.016;2023-02-01T04:40:09;5.30;99.90
44579;DHT22;37422;51.402;0.016;2023-02-01T04:42:40;5.30;99.90
44579;DHT22;37422;51.402;0.016;2023-02-01T04:45:10;5.30;99.90
44579;DHT22;37422;51.402;0.016;2023-02-01T04:47:45;5.30;99.90
44579;DHT22;37422;51.402;0.016;2023-02-01T04:50:15;5.30;99.90
44579;DHT22;37422;51.402;0.016;2023-02-01T04:52:43;5.30;99.90
44579;DHT22;37422;51.402;0.016;2023-02-01T04:55:14;5.30;99.90
44579;DHT22;37422;51.402;0.016;2023-02-01T04:57:42;5.20;99.90
44579;DHT22;37422;51.402;0.016;2023-02-01T05:00:11;5.30;99.90
44579;DHT22;37422;51.402;0.016;2023-02-01T05:02:41;5.30;99.90
44579;DHT22;37422;51.402;0.016;2023-02-01T05:05:10;5.20;99.90
44579;DHT22;37422;51.402;0.016;2023-02-01T05:07:37;5.30;99.90
44579;DHT22;37422;51.402;0.016;2023-02-01T05:10:05;5.30;99.90
44579;DHT22;37422;51.402;0.016;2023-02-01T05:12:41;5.30;99.90
44579;DHT22;37422;51.402;0.016;2023-02-01T05:15:32;5.30;99.90
44579;DHT22;37422;51.402;0.016;2023-02-01T05:18:16;5.30;99.90
44579;DHT22;37422;51.402;0.016;2023-02-01T05:20:47;5.30;99.90
44579;DHT22;37422;51.402;0.016;2023-02-01T05:23:25;5.30;99.90
44579;DHT22;37422;51.402;0.016;2023-02-01T05:26:09;5.30;99.90
44579;DHT22;37422;51.402;0.016;2023-02-01T05:28:37;5.30;99.90
44579;DHT22;37422;51.402;0.016;2023-02-01T05:31:10;5.40;99.90
44579;DHT22;37422;51.402;0.016;2023-02-01T05:33:41;5.40;99.90
44579;DHT22;37422;51.402;0.016;2023-02-01T05:36:12;5.30;99.90
44579;DHT22;37422;51.402;0.016;2023-02-01T05:38:41;5.40;99.90
44579;DHT22;37422;51.402;0.016;2023-02-01T05:41:12;5.40;99.90
44579;DHT22;37422;51.402;0.016;2023-02-01T05:43:54;5.50;99.90
44579;DHT22;37422;51.402;0.016;2023-02-01T05:46:22;5.50;99.90
44579;DHT22;37422;51.402;0.016;2023-02-01T05:49:02;5.50;99.90
44579;DHT22;37422;51.402;0.016;2023-02-01T05:51:35;5.50;99.90
44579;DHT22;37422;51.402;0.016;2023-02-01T05:54:09;5.50;99.90
44579;DHT22;37422;51.402;0.016;2023-02-01T05:56:38;5.50;99.90
44579;DHT22;37422;51.402;0.016;2023-02-01T05:59:19;5.50;99.90
44579;DHT22;37422;51.402;0.016;2023-02-01T06:01:50;5.50;99.90
44579;DHT22;37422;51.402;0.016;2023-02-01T06:04:18;5.40;99.90
44579;DHT22;37422;51.402;0.016;2023-02-01T06:06:48;5.40;99.90
44579;DHT22;37422;51.402;0.016;2023-02-01T06:09:35;5.40;99.90
44579;DHT22;37422;51.402;0.016;2023-02-01T06:12:08;5.40;99.90
44579;DHT22;37422;51.402;0.016;2023-02-01T06:14:39;5.40;99.90
44579;DHT22;37422;51.402;0.016;2023-02-01T06:17:11;5.40;99.90
44579;DHT22;37422;51.402;0.016;2023-02-01T06:19:53;5.40;99.90
44579;DHT22;37422;51.402;0.016;2023-02-01T06:22:35;5.40;99.90
44579;DHT22;37422;51.402;0.016;2023-02-01T06:25:12;5.50;99.90
44579;DHT22;37422;51.402;0.016;2023-02-01T06:27:40;5.50;99.90
44579;DHT22;37422;51.402;0.016;2023-02-01T06:30:19;5.50;99.90
44579;DHT22;37422;51.402;0.016;2023-02-01T06:32:50;5.50;99.90
44579;DHT22;37422;51.402;0.016;2023-02-01T06:35:21;5.50;99.90
44579;DHT22;37422;51.402;0.016;2023-02-01T06:37:49;5.50;99.90
44579;DHT22;37422;51.402;0.016;2023-02-01T06:40:17;5.50;99.90
44579;DHT22;37422;51.402;0.016;2023-02-01T06:42:45;5.50;99.90
44579;DHT22;37422;51.402;0.016;2023-02-01T06:45:13;5.50;99.90
44579;DHT22;37422;51.402;0.016;2023-02-01T06:47:43;5.50;99.90
44579;DHT22;37422;51.402;0.016;2023-02-01T06:50:11;5.50;99.90
44579;DHT22;37422;51.402;0.016;2023-02-01T06:52:39;5.50;99.90
44579;DHT22;37422;51.402;0.016;2023-02-01T06:55:13;5.50;99.90
44579;DHT22;37422;51.402;0.016;2023-02-01T06:57:44;5.50;99.90
44579;DHT22;37422;51.402;0.016;2023-02-01T07:00:18;5.50;99.90
44579;DHT22;37422;51.402;0.016;2023-02-01T07:02:58;5.50;99.90
44579;DHT22;37422;51.402;0.016;2023-02-01T07:05:57;5.50;99.90
44579;DHT22;37422;51.402;0.016;2023-02-01T07:08:36;5.50;99.90
44579;DHT22;37422;51.402;0.016;2023-02-01T07:11:10;5.50;99.90
44579;DHT22;37422;51.402;0.016;2023-02-01T07:13:49;5.50;99.90
44579;DHT22;37422;51.402;0.016;2023-02-01T07:16:26;5.50;99.90
44579;DHT22;37422;51.402;0.016;2023-02-01T07:18:59;5.50;99.90
44579;DHT22;37422;51.402;0.016;2023-02-01T07:22:01;5.50;99.90
44579;DHT22;37422;51.402;0.016;2023-02-01T07:24:41;5.50;99.90
44579;DHT22;37422;51.402;0.016;2023-02-01T07:27:16;5.50;99.90
44579;DHT22;37422;51.402;0.016;2023-02-01T07:29:54;5.60;99.90
44579;DHT22;37422;51.402;0.016;2023-02-01T07:32:33;5.60;99.90
44579;DHT22;37422;51.402;0.016;2023-02-01T07:35:15;5.70;99.90
44579;DHT22;37422;51.402;0.016;2023-02-01T07:37:44;5.80;99.90
44579;DHT22;37422;51.402;0.016;2023-02-01T07:40:15;5.80;99.90
44579;DHT22;37422;51.402;0.016;2023-02-01T07:42:59;5.90;99.90
44579;DHT22;37422;51.402;0.016;2023-02-01T07:45:58;5.90;99.90
44579;DHT22;37422;51.402;0.016;2023-02-01T07:48:49;5.90;99.90
44579;DHT22;37422;51.402;0.016;2023-02-01T07:51:27;5.90;99.90
44579;DHT22;37422;51.402;0.016;2023-02-01T07:53:55;5.90;99.90
44579;DHT22;37422;51.402;0.016;2023-02-01T07:56:32;5.80;99.90
44579;DHT22;37422;51.402;0.016;2023-02-01T07:59:04;5.80;99.90
44579;DHT22;37422;51.402;0.016;2023-02-01T08:01:52;5.80;99.90
44579;DHT22;37422;51.402;0.016;2023-02-01T08:04:34;5.80;99.90
44579;DHT22;37422;51.402;0.016;2023-02-01T08:07:05;5.80;99.90
44579;DHT22;37422;51.402;0.016;2023-02-01T08:09:51;5.80;99.90
44579;DHT22;37422;51.402;0.016;2023-02-01T08:12:41;5.90;99.90
44579;DHT22;37422;51.402;0.016;2023-02-01T08:16:00;6.10;99.90
44579;DHT22;37422;51.402;0.016;2023-02-01T08:18:52;6.30;99.90
44579;DHT22;37422;51.402;0.016;2023-02-01T08:21:24;6.40;99.90
44579;DHT22;37422;51.402;0.016;2023-02-01T08:24:06;6.40;99.90
44579;DHT22;37422;51.402;0.016;2023-02-01T08:26:34;6.40;99.90
44579;DHT22;37422;51.402;0.016;2023-02-01T08:29:07;6.40;99.90
44579;DHT22;37422;51.402;0.016;2023-02-01T08:31:41;6.40;99.90
44579;DHT22;37422;51.402;0.016;2023-02-01T08:34:16;6.40;99.90
44579;DHT22;37422;51.402;0.016;2023-02-01T08:40:15;6.60;99.90
44579;DHT22;37422;51.402;0.016;2023-02-01T08:43:18;6.80;99.90
44579;DHT22;37422;51.402;0.016;2023-02-01T08:46:12;7.00;99.90
44579;DHT22;37422;51.402;0.016;2023-02-01T08:52:19;7.30;99.90
44579;DHT22;37422;51.402;0.016;2023-02-01T08:55:05;7.30;99.90
44579;DHT22;37422;51.402;0.016;2023-02-01T08:57:55;7.30;99.90
44579;DHT22;37422;51.402;0.016;2023-02-01T09:00:39;7.30;99.90
44579;DHT22;37422;51.402;0.016;2023-02-01T09:03:27;7.30;99.90
44579;DHT22;37422;51.402;0.016;2023-02-01T09:06:12;7.10;99.90
44579;DHT22;37422;51.402;0.016;2023-02-01T09:09:20;7.20;99.90
44579;DHT22;37422;51.402;0.016;2023-02-01T09:12:51;7.20;99.90
44579;DHT22;37422;51.402;0.016;2023-02-01T09:15:34;7.50;99.90
44579;DHT22;37422;51.402;0.016;2023-02-01T09:18:31;7.80;99.90
44579;DHT22;37422;51.402;0.016;2023-02-01T09:21:42;8.20;99.90
44579;DHT22;37422;51.402;0.016;2023-02-01T09:24:26;8.40;99.90
44579;DHT22;37422;51.402;0.016;2023-02-01T09:27:07;8.70;99.90
44579;DHT22;37422;51.402;0.016;2023-02-01T09:30:04;8.90;99.90
44579;DHT22;37422;51.402;0.016;2023-02-01T09:32:35;9.10;99.90
44579;DHT22;37422;51.402;0.016;2023-02-01T09:35:06;9.20;99.90
44579;DHT22;37422;51.402;0.016;2023-02-01T09:37:34;9.30;99.90
44579;DHT22;37422;51.402;0.016;2023-02-01T09:40:03;9.50;99.90
44579;DHT22;37422;51.402;0.016;2023-02-01T09:48:38;9.80;99.90
44579;DHT22;37422;51.402;0.016;2023-02-01T09:51:20;9.60;99.90
44579;DHT22;37422;51.402;0.016;2023-02-01T09:54:05;9.60;99.90
44579;DHT22;37422;51.402;0.016;2023-02-01T09:56:57;9.50;99.90
44579;DHT22;37422;51.402;0.016;2023-02-01T10:00:14;9.50;99.90
44579;DHT22;37422;51.402;0.016;2023-02-01T10:02:26;9.40;99.90
44579;DHT22;37422;51.402;0.016;2023-02-01T10:04:59;9.30;99.90
44579;DHT22;37422;51.402;0.016;2023-02-01T10:07:55;9.20;99.90
44579;DHT22;37422;51.402;0.016;2023-02-01T10:10:54;9.20;99.90
44579;DHT22;37422;51.402;0.016;2023-02-01T10:13:40;9.20;99.90
44579;DHT22;37422;51.402;0.016;2023-02-01T10:19:20;9.40;99.90
44579;DHT22;37422;51.402;0.016;2023-02-01T10:22:01;9.60;99.90
44579;DHT22;37422;51.402;0.016;2023-02-01T10:24:47;9.90;99.90
44579;DHT22;37422;51.402;0.016;2023-02-01T10:27:37;10.10;99.90
44579;DHT22;37422;51.402;0.016;2023-02-01T10:32:45;10.50;99.90
44579;DHT22;37422;51.402;0.016;2023-02-01T10:35:27;10.60;99.90
44579;DHT22;37422;51.402;0.016;2023-02-01T10:38:04;10.80;99.90
44579;DHT22;37422;51.402;0.016;2023-02-01T10:40:44;11.10;99.90
44579;DHT22;37422;51.402;0.016;2023-02-01T10:43:13;11.40;99.90
44579;DHT22;37422;51.402;0.016;2023-02-01T10:45:45;11.70;99.90
44579;DHT22;37422;51.402;0.016;2023-02-01T10:48:14;11.80;99.90
44579;DHT22;37422;51.402;0.016;2023-02-01T10:54:17;11.80;99.90
44579;DHT22;37422;51.402;0.016;2023-02-01T10:57:00;11.80;99.90
44579;DHT22;37422;51.402;0.016;2023-02-01T10:59:35;11.80;99.90
44579;DHT22;37422;51.402;0.016;2023-02-01T11:02:29;11.80;99.90
44579;DHT22;37422;51.402;0.016;2023-02-01T11:05:07;11.80;99.90
44579;DHT22;37422;51.402;0.016;2023-02-01T11:08:23;11.80;99.90
44579;DHT22;37422;51.402;0.016;2023-02-01T11:11:03;11.70;99.90
44579;DHT22;37422;51.402;0.016;2023-02-01T11:13:45;11.40;99.90
44579;DHT22;37422;51.402;0.016;2023-02-01T11:16:34;11.40;99.90
44579;DHT22;37422;51.402;0.016;2023-02-01T11:19:20;11.30;99.90
44579;DHT22;37422;51.402;0.016;2023-02-01T11:22:28;11.50;99.90
44579;DHT22;37422;51.402;0.016;2023-02-01T11:25:01;11.90;99.90
44579;DHT22;37422;51.402;0.016;2023-02-01T11:27:51;12.20;99.90
44579;DHT22;37422;51.402;0.016;2023-02-01T11:30:33;12.70;99.90
44579;DHT22;37422;51.402;0.016;2023-02-01T11:33:29;13.50;99.90
44579;DHT22;37422;51.402;0.016;2023-02-01T11:35:58;14.50;99.90
44579;DHT22;37422;51.402;0.016;2023-02-01T11:38:33;15.20;99.90
44579;DHT22;37422;51.402;0.016;2023-02-01T11:43:55;16.40;99.90
44579;DHT22;37422;51.402;0.016;2023-02-01T11:47:31;16.90;99.90
44579;DHT22;37422;51.402;0.016;2023-02-01T11:49:44;17.00;98.40
44579;DHT22;37422;51.402;0.016;2023-02-01T12:00:31;16.20;98.90
44579;DHT22;37422;51.402;0.016;2023-02-01T12:12:36;17.10;96.30
44579;DHT22;37422;51.402;0.016;2023-02-01T12:26:44;17.60;94.20
44579;DHT22;37422;51.402;0.016;2023-02-01T12:34:56;17.60;94.90
44579;DHT22;37422;51.402;0.016;2023-02-01T12:43:29;15.70;95.00
44579;DHT22;37422;51.402;0.016;2023-02-01T12:46:12;15.40;95.80
44579;DHT22;37422;51.402;0.016;2023-02-01T12:49:01;15.10;95.50
44579;DHT22;37422;51.402;0.016;2023-02-01T12:51:44;14.70;95.60
44579;DHT22;37422;51.402;0.016;2023-02-01T12:57:36;14.50;96.60
44579;DHT22;37422;51.402;0.016;2023-02-01T13:00:32;14.50;96.50
44579;DHT22;37422;51.402;0.016;2023-02-01T13:06:36;14.20;96.60
44579;DHT22;37422;51.402;0.016;2023-02-01T13:09:26;14.20;97.60
44579;DHT22;37422;51.402;0.016;2023-02-01T13:12:00;14.60;97.40
44579;DHT22;37422;51.402;0.016;2023-02-01T13:14:52;15.00;96.80
44579;DHT22;37422;51.402;0.016;2023-02-01T13:17:24;15.50;96.40
44579;DHT22;37422;51.402;0.016;2023-02-01T13:23:07;16.30;96.30
44579;DHT22;37422;51.402;0.016;2023-02-01T13:25:50;16.50;96.20
44579;DHT22;37422;51.402;0.016;2023-02-01T13:28:28;16.60;94.70
44579;DHT22;37422;51.402;0.016;2023-02-01T13:43:24;14.20;96.30
44579;DHT22;37422;51.402;0.016;2023-02-01T13:45:56;13.80;96.90
44579;DHT22;37422;51.402;0.016;2023-02-01T13:48:49;13.70;97.40
44579;DHT22;37422;51.402;0.016;2023-02-01T13:54:05;13.40;97.50
44579;DHT22;37422;51.402;0.016;2023-02-01T13:56:44;13.20;97.80
44579;DHT22;37422;51.402;0.016;2023-02-01T14:08:10;12.80;98.40
44579;DHT22;37422;51.402;0.016;2023-02-01T14:20:39;12.30;99.10
44579;DHT22;37422;51.402;0.016;2023-02-01T14:23:15;12.20;99.30
44579;DHT22;37422;51.402;0.016;2023-02-01T14:26:03;12.10;99.40
44579;DHT22;37422;51.402;0.016;2023-02-01T14:38:01;12.00;99.80
44579;DHT22;37422;51.402;0.016;2023-02-01T14:40:49;12.00;99.90
44579;DHT22;37422;51.402;0.016;2023-02-01T14:44:37;11.90;99.90
44579;DHT22;37422;51.402;0.016;2023-02-01T14:47:10;11.90;99.90
44579;DHT22;37422;51.402;0.016;2023-02-01T14:52:50;11.90;99.90
44579;DHT22;37422;51.402;0.016;2023-02-01T14:55:24;11.90;99.90
44579;DHT22;37422;51.402;0.016;2023-02-01T14:58:05;11.90;99.90
44579;DHT22;37422;51.402;0.016;2023-02-01T15:00:57;11.90;99.90
44579;DHT22;37422;51.402;0.016;2023-02-01T15:03:49;11.90;99.90
44579;DHT22;37422;51.402;0.016;2023-02-01T15:06:42;11.90;99.90
44579;DHT22;37422;51.402;0.016;2023-02-01T15:09:35;11.90;99.90
44579;DHT22;37422;51.402;0.016;2023-02-01T15:15:17;11.90;99.90
44579;DHT22;37422;51.402;0.016;2023-02-01T15:17:56;11.90;99.90
44579;DHT22;37422;51.402;0.016;2023-02-01T15:20:35;11.80;99.90
44579;DHT22;37422;51.402;0.016;2023-02-01T15:23:49;11.70;99.90
44579;DHT22;37422;51.402;0.016;2023-02-01T15:26:32;11.70;99.90
44579;DHT22;37422;51.402;0.016;2023-02-01T15:29:12;11.60;99.90
44579;DHT22;37422;51.402;0.016;2023-02-01T15:31:56;11.50;99.90
44579;DHT22;37422;51.402;0.016;2023-02-01T15:34:49;11.50;99.90
44579;DHT22;37422;51.402;0.016;2023-02-01T15:37:30;11.40;99.90
44579;DHT22;37422;51.402;0.016;2023-02-01T15:40:19;11.30;99.90
44579;DHT22;37422;51.402;0.016;2023-02-01T15:42:58;11.20;99.90
44579;DHT22;37422;51.402;0.016;2023-02-01T15:45:58;11.20;99.90
44579;DHT22;37422;51.402;0.016;2023-02-01T15:51:33;11.10;99.90
44579;DHT22;37422;51.402;0.016;2023-02-01T15:54:02;11.10;99.90
44579;DHT22;37422;51.402;0.016;2023-02-01T15:56:41;11.00;99.90
44579;DHT22;37422;51.402;0.016;2023-02-01T15:59:24;11.00;99.90
44579;DHT22;37422;51.402;0.016;2023-02-01T16:01:56;11.00;99.90
44579;DHT22;37422;51.402;0.016;2023-02-01T16:04:26;10.90;99.90
44579;DHT22;37422;51.402;0.016;2023-02-01T16:07:32;10.90;99.90
44579;DHT22;37422;51.402;0.016;2023-02-01T16:10:25;10.90;99.90
44579;DHT22;37422;51.402;0.016;2023-02-01T16:12:53;10.80;99.90
44579;DHT22;37422;51.402;0.016;2023-02-01T16:15:30;10.70;99.90
44579;DHT22;37422;51.402;0.016;2023-02-01T16:18:06;10.70;99.90
44579;DHT22;37422;51.402;0.016;2023-02-01T16:20:57;10.70;99.90
44579;DHT22;37422;51.402;0.016;2023-02-01T16:23:24;10.60;99.90
44579;DHT22;37422;51.402;0.016;2023-02-01T16:26:01;10.60;99.90
44579;DHT22;37422;51.402;0.016;2023-02-01T16:28:29;10.50;99.90
44579;DHT22;37422;51.402;0.016;2023-02-01T16:31:00;10.50;99.90
44579;DHT22;37422;51.402;0.016;2023-02-01T16:33:49;10.40;99.90
44579;DHT22;37422;51.402;0.016;2023-02-01T16:36:39;10.40;99.90
44579;DHT22;37422;51.402;0.016;2023-02-01T16:39:21;10.30;99.90
44579;DHT22;37422;51.402;0.016;2023-02-01T16:41:55;10.30;99.90
44579;DHT22;37422;51.402;0.016;2023-02-01T16:44:27;10.30;99.90
44579;DHT22;37422;51.402;0.016;2023-02-01T16:47:15;10.20;99.90
44579;DHT22;37422;51.402;0.016;2023-02-01T16:49:56;10.20;99.90
44579;DHT22;37422;51.402;0.016;2023-02-01T16:52:27;10.20;99.90
44579;DHT22;37422;51.402;0.016;2023-02-01T16:54:57;10.20;99.90
44579;DHT22;37422;51.402;0.016;2023-02-01T16:57:25;10.10;99.90
44579;DHT22;37422;51.402;0.016;2023-02-01T16:59:55;10.10;99.90
44579;DHT22;37422;51.402;0.016;2023-02-01T17:02:26;10.10;99.90
44579;DHT22;37422;51.402;0.016;2023-02-01T17:04:54;10.10;99.90
44579;DHT22;37422;51.402;0.016;2023-02-01T17:07:25;10.10;99.90
44579;DHT22;37422;51.402;0.016;2023-02-01T17:09:54;10.00;99.90
44579;DHT22;37422;51.402;0.016;2023-02-01T17:12:42;10.00;99.90
44579;DHT22;37422;51.402;0.016;2023-02-01T17:15:12;10.00;99.90
44579;DHT22;37422;51.402;0.016;2023-02-01T17:18:01;10.00;99.90
44579;DHT22;37422;51.402;0.016;2023-02-01T17:20:42;10.00;99.90
44579;DHT22;37422;51.402;0.016;2023-02-01T17:23:14;9.90;99.90
44579;DHT22;37422;51.402;0.016;2023-02-01T17:26:10;9.90;99.90
44579;DHT22;37422;51.402;0.016;2023-02-01T17:29:00;9.90;99.90
44579;DHT22;37422;51.402;0.016;2023-02-01T17:31:33;9.90;99.90
44579;DHT22;37422;51.402;0.016;2023-02-01T17:34:07;9.80;99.90
44579;DHT22;37422;51.402;0.016;2023-02-01T17:37:05;9.80;99.90
44579;DHT22;37422;51.402;0.016;2023-02-01T17:39:39;9.80;99.90
44579;DHT22;37422;51.402;0.016;2023-02-01T17:42:28;9.70;99.90
44579;DHT22;37422;51.402;0.016;2023-02-01T17:47:55;9.70;99.90
44579;DHT22;37422;51.402;0.016;2023-02-01T17:50:47;9.70;99.90
44579;DHT22;37422;51.402;0.016;2023-02-01T17:53:34;9.80;99.90
44579;DHT22;37422;51.402;0.016;2023-02-01T17:56:13;9.90;99.90
44579;DHT22;37422;51.402;0.016;2023-02-01T17:58:45;9.90;99.90
44579;DHT22;37422;51.402;0.016;2023-02-01T18:01:18;9.90;99.90
44579;DHT22;37422;51.402;0.016;2023-02-01T18:03:49;9.90;99.90
44579;DHT22;37422;51.402;0.016;2023-02-01T18:06:24;9.80;99.90
44579;DHT22;37422;51.402;0.016;2023-02-01T18:09:06;9.80;99.90
44579;DHT22;37422;51.402;0.016;2023-02-01T18:11:38;9.70;99.90
44579;DHT22;37422;51.402;0.016;2023-02-01T18:14:20;9.60;99.90
44579;DHT22;37422;51.402;0.016;2023-02-01T18:16:59;9.60;99.90
44579;DHT22;37422;51.402;0.016;2023-02-01T18:20:16;9.60;99.90
44579;DHT22;37422;51.402;0.016;2023-02-01T18:22:52;9.60;99.90
44579;DHT22;37422;51.402;0.016;2023-02-01T18:25:26;9.60;99.90
44579;DHT22;37422;51.402;0.016;2023-02-01T18:27:56;9.60;99.90
44579;DHT22;37422;51.402;0.016;2023-02-01T18:30:29;9.50;99.90
44579;DHT22;37422;51.402;0.016;2023-02-01T18:33:07;9.50;99.90
44579;DHT22;37422;51.402;0.016;2023-02-01T18:35:39;9.50;99.90
44579;DHT22;37422;51.402;0.016;2023-02-01T18:38:08;9.50;99.90
44579;DHT22;37422;51.402;0.016;2023-02-01T18:40:42;9.50;99.90
44579;DHT22;37422;51.402;0.016;2023-02-01T18:43:24;9.50;99.90
44579;DHT22;37422;51.402;0.016;2023-02-01T18:46:02;9.50;99.90
44579;DHT22;37422;51.402;0.016;2023-02-01T18:48:30;9.40;99.90
44579;DHT22;37422;51.402;0.016;2023-02-01T18:51:01;9.40;99.90
44579;DHT22;37422;51.402;0.016;2023-02-01T18:53:36;9.40;99.90
44579;DHT22;37422;51.402;0.016;2023-02-01T18:56:15;9.30;99.90
44579;DHT22;37422;51.402;0.016;2023-02-01T18:58:51;9.30;99.90
44579;DHT22;37422;51.402;0.016;2023-02-01T19:01:20;9.20;99.90
44579;DHT22;37422;51.402;0.016;2023-02-01T19:07:09;9.10;99.90
44579;DHT22;37422;51.402;0.016;2023-02-01T19:09:42;9.00;99.90
44579;DHT22;37422;51.402;0.016;2023-02-01T19:12:19;9.00;99.90
44579;DHT22;37422;51.402;0.016;2023-02-01T19:14:58;8.80;99.90
44579;DHT22;37422;51.402;0.016;2023-02-01T19:17:58;9.00;99.90
44579;DHT22;37422;51.402;0.016;2023-02-01T19:20:28;8.90;99.90
44579;DHT22;37422;51.402;0.016;2023-02-01T19:23:10;8.90;99.90
44579;DHT22;37422;51.402;0.016;2023-02-01T19:25:43;8.80;99.90
44579;DHT22;37422;51.402;0.016;2023-02-01T19:28:14;8.80;99.90
44579;DHT22;37422;51.402;0.016;2023-02-01T19:30:42;8.80;99.90
44579;DHT22;37422;51.402;0.016;2023-02-01T19:33:37;8.80;99.90
44579;DHT22;37422;51.402;0.016;2023-02-01T19:36:11;8.80;99.90
44579;DHT22;37422;51.402;0.016;2023-02-01T19:38:43;8.80;99.90
44579;DHT22;37422;51.402;0.016;2023-02-01T19:42:22;8.70;99.90
44579;DHT22;37422;51.402;0.016;2023-02-01T19:44:48;8.70;99.90
44579;DHT22;37422;51.402;0.016;2023-02-01T19:47:25;8.70;99.90
44579;DHT22;37422;51.402;0.016;2023-02-01T19:50:01;8.60;99.90
44579;DHT22;37422;51.402;0.016;2023-02-01T19:52:48;8.60;99.90
44579;DHT22;37422;51.402;0.016;2023-02-01T19:55:29;8.60;99.90
44579;DHT22;37422;51.402;0.016;2023-02-01T19:58:16;8.60;99.90
44579;DHT22;37422;51.402;0.016;2023-02-01T20:01:12;8.60;99.90